LFAT METAR and TAF | Updated Today

LFAT METAR

Le Touquet-Côte d'Opale Airport

Observation time: 2 min. ago

LFAT 062030Z AUTO 14005KT 130V220 CAVOK 12/09 Q1029

Need help? Read our tutorial on how to read METARs or read the parsed version below.

Le Touquet-Côte d'Opale Airport (LFAT) METAR

  • Weather conditions on Thu, 06 Oct 2022 20:30:00 +0000 (2 min. ago):
  • Present conditions: Dry
  • Clouds: Clear skies
  • Visibility: Greater than 10 km
  • Wind: 140 degrees at 5 knots
  • Temperature: 12 celsius
  • Dew point: 9 celsius
  • Pressure: 1029 millibars
  • Remarks: None


Useful to know...

  • Codes: LFAT/LTQ
  • Airport elevation: 36ft
  • Municipality: Le Touquet-Paris-Plage
  • Country: France
  • Continent: Europe

LFAT TAF

Le Touquet-Côte d'Opale Airport

TAF LFAT 061400Z 0615/0624 26008KT 9999 SCT040
Observation time: 6:32 hr. ago
Need help? Read our tutorial on how to read TAFs or read the parsed version below.

Parsed version of TAF for Le Touquet-Côte d'Opale Airport (LFAT)

  • From 06 October at 15:00 UTC, to day 06 of the month at 24:00 UTC
  • Clouds: Scattered at 1219 meters
  • Visibility: Greater than 10 km
  • Wind: 260 degrees at 8